sensor_id;sensor_type;location;lat;lon;timestamp;P1;durP1;ratioP1;P2;durP2;ratioP2
5133;SDS011;2585;48.696;10.066;2023-05-16T00:00:00;10.27;;;7.47;;
5133;SDS011;2585;48.696;10.066;2023-05-16T00:02:31;9.60;;;7.20;;
5133;SDS011;2585;48.696;10.066;2023-05-16T00:04:58;12.23;;;8.67;;
5133;SDS011;2585;48.696;10.066;2023-05-16T00:07:25;9.90;;;7.37;;
5133;SDS011;2585;48.696;10.066;2023-05-16T00:09:52;13.10;;;8.67;;
5133;SDS011;2585;48.696;10.066;2023-05-16T00:12:19;12.10;;;7.33;;
5133;SDS011;2585;48.696;10.066;2023-05-16T00:14:48;8.43;;;7.20;;
5133;SDS011;2585;48.696;10.066;2023-05-16T00:17:16;11.37;;;8.67;;
5133;SDS011;2585;48.696;10.066;2023-05-16T00:19:45;11.33;;;8.47;;
5133;SDS011;2585;48.696;10.066;2023-05-16T00:22:14;12.40;;;8.37;;
5133;SDS011;2585;48.696;10.066;2023-05-16T00:24:41;10.67;;;8.50;;
5133;SDS011;2585;48.696;10.066;2023-05-16T00:27:08;10.83;;;8.17;;
5133;SDS011;2585;48.696;10.066;2023-05-16T00:29:35;9.87;;;7.87;;
5133;SDS011;2585;48.696;10.066;2023-05-16T00:32:02;11.30;;;8.83;;
5133;SDS011;2585;48.696;10.066;2023-05-16T00:34:29;14.60;;;8.13;;
5133;SDS011;2585;48.696;10.066;2023-05-16T00:36:55;11.03;;;8.53;;
5133;SDS011;2585;48.696;10.066;2023-05-16T00:39:22;12.20;;;7.30;;
5133;SDS011;2585;48.696;10.066;2023-05-16T00:41:49;11.33;;;8.57;;
5133;SDS011;2585;48.696;10.066;2023-05-16T00:44:16;9.60;;;7.37;;
5133;SDS011;2585;48.696;10.066;2023-05-16T00:46:43;10.17;;;8.03;;
5133;SDS011;2585;48.696;10.066;2023-05-16T00:49:10;11.10;;;8.40;;
5133;SDS011;2585;48.696;10.066;2023-05-16T00:51:37;10.67;;;8.50;;
5133;SDS011;2585;48.696;10.066;2023-05-16T00:54:04;10.50;;;7.87;;
5133;SDS011;2585;48.696;10.066;2023-05-16T00:56:32;12.07;;;8.00;;
5133;SDS011;2585;48.696;10.066;2023-05-16T00:59:00;9.40;;;7.40;;
5133;SDS011;2585;48.696;10.066;2023-05-16T01:01:27;10.83;;;8.00;;
5133;SDS011;2585;48.696;10.066;2023-05-16T01:03:54;12.17;;;8.70;;
5133;SDS011;2585;48.696;10.066;2023-05-16T01:06:21;16.30;;;7.70;;
5133;SDS011;2585;48.696;10.066;2023-05-16T01:08:48;13.03;;;9.00;;
5133;SDS011;2585;48.696;10.066;2023-05-16T01:16:58;12.30;;;8.73;;
5133;SDS011;2585;48.696;10.066;2023-05-16T01:28:03;12.33;;;8.43;;
5133;SDS011;2585;48.696;10.066;2023-05-16T01:30:32;11.73;;;8.67;;
5133;SDS011;2585;48.696;10.066;2023-05-16T01:33:00;11.30;;;8.67;;
5133;SDS011;2585;48.696;10.066;2023-05-16T01:35:27;12.37;;;9.17;;
5133;SDS011;2585;48.696;10.066;2023-05-16T01:37:58;13.40;;;10.30;;
5133;SDS011;2585;48.696;10.066;2023-05-16T01:43:20;13.23;;;9.13;;
5133;SDS011;2585;48.696;10.066;2023-05-16T01:45:58;14.60;;;10.13;;
5133;SDS011;2585;48.696;10.066;2023-05-16T01:48:45;13.20;;;9.40;;
5133;SDS011;2585;48.696;10.066;2023-05-16T01:51:20;14.23;;;10.40;;
5133;SDS011;2585;48.696;10.066;2023-05-16T01:53:49;16.87;;;11.50;;
5133;SDS011;2585;48.696;10.066;2023-05-16T01:56:17;15.50;;;10.50;;
5133;SDS011;2585;48.696;10.066;2023-05-16T01:58:46;16.90;;;11.30;;
5133;SDS011;2585;48.696;10.066;2023-05-16T02:01:16;12.27;;;10.30;;
5133;SDS011;2585;48.696;10.066;2023-05-16T02:03:43;12.77;;;9.77;;
5133;SDS011;2585;48.696;10.066;2023-05-16T02:06:10;15.00;;;10.50;;
5133;SDS011;2585;48.696;10.066;2023-05-16T02:08:37;15.23;;;10.47;;
5133;SDS011;2585;48.696;10.066;2023-05-16T02:11:04;12.70;;;10.27;;
5133;SDS011;2585;48.696;10.066;2023-05-16T02:13:31;13.70;;;10.60;;
5133;SDS011;2585;48.696;10.066;2023-05-16T02:15:58;12.67;;;10.47;;
5133;SDS011;2585;48.696;10.066;2023-05-16T02:18:24;11.47;;;9.60;;
5133;SDS011;2585;48.696;10.066;2023-05-16T02:20:53;17.80;;;11.20;;
5133;SDS011;2585;48.696;10.066;2023-05-16T02:23:20;18.93;;;11.17;;
5133;SDS011;2585;48.696;10.066;2023-05-16T02:25:47;15.33;;;11.13;;
5133;SDS011;2585;48.696;10.066;2023-05-16T02:28:14;14.57;;;11.70;;
5133;SDS011;2585;48.696;10.066;2023-05-16T02:30:41;15.77;;;10.70;;
5133;SDS011;2585;48.696;10.066;2023-05-16T02:33:08;13.40;;;10.90;;
5133;SDS011;2585;48.696;10.066;2023-05-16T02:35:36;16.77;;;11.00;;
5133;SDS011;2585;48.696;10.066;2023-05-16T02:38:03;19.93;;;10.50;;
5133;SDS011;2585;48.696;10.066;2023-05-16T02:40:29;13.70;;;10.63;;
5133;SDS011;2585;48.696;10.066;2023-05-16T02:42:56;15.07;;;10.67;;
5133;SDS011;2585;48.696;10.066;2023-05-16T02:45:23;14.37;;;10.33;;
5133;SDS011;2585;48.696;10.066;2023-05-16T02:47:50;18.13;;;11.37;;
5133;SDS011;2585;48.696;10.066;2023-05-16T02:50:17;13.00;;;10.20;;
5133;SDS011;2585;48.696;10.066;2023-05-16T02:52:44;15.33;;;10.43;;
5133;SDS011;2585;48.696;10.066;2023-05-16T02:55:10;11.60;;;9.43;;
5133;SDS011;2585;48.696;10.066;2023-05-16T02:57:40;13.43;;;10.80;;
5133;SDS011;2585;48.696;10.066;2023-05-16T03:00:07;15.10;;;11.43;;
5133;SDS011;2585;48.696;10.066;2023-05-16T03:02:36;13.47;;;10.37;;
5133;SDS011;2585;48.696;10.066;2023-05-16T03:05:04;15.80;;;10.10;;
5133;SDS011;2585;48.696;10.066;2023-05-16T03:07:31;15.90;;;11.10;;
5133;SDS011;2585;48.696;10.066;2023-05-16T03:09:58;14.30;;;10.63;;
5133;SDS011;2585;48.696;10.066;2023-05-16T03:12:25;15.67;;;10.13;;
5133;SDS011;2585;48.696;10.066;2023-05-16T03:14:52;11.50;;;9.63;;
5133;SDS011;2585;48.696;10.066;2023-05-16T03:17:18;12.53;;;9.07;;
5133;SDS011;2585;48.696;10.066;2023-05-16T03:19:45;12.30;;;10.20;;
5133;SDS011;2585;48.696;10.066;2023-05-16T03:22:12;14.70;;;10.80;;
5133;SDS011;2585;48.696;10.066;2023-05-16T03:24:39;15.53;;;9.33;;
5133;SDS011;2585;48.696;10.066;2023-05-16T03:27:06;14.30;;;9.90;;
5133;SDS011;2585;48.696;10.066;2023-05-16T03:29:33;13.30;;;10.50;;
5133;SDS011;2585;48.696;10.066;2023-05-16T03:32:00;12.90;;;9.43;;
5133;SDS011;2585;48.696;10.066;2023-05-16T03:34:27;16.47;;;11.00;;
5133;SDS011;2585;48.696;10.066;2023-05-16T03:36:54;12.93;;;10.73;;
5133;SDS011;2585;48.696;10.066;2023-05-16T03:39:21;14.23;;;10.23;;
5133;SDS011;2585;48.696;10.066;2023-05-16T03:41:47;17.17;;;11.60;;
5133;SDS011;2585;48.696;10.066;2023-05-16T03:44:14;13.10;;;9.73;;
5133;SDS011;2585;48.696;10.066;2023-05-16T03:46:41;16.40;;;10.13;;
5133;SDS011;2585;48.696;10.066;2023-05-16T03:49:08;14.27;;;9.80;;
5133;SDS011;2585;48.696;10.066;2023-05-16T03:51:35;12.67;;;10.37;;
5133;SDS011;2585;48.696;10.066;2023-05-16T03:54:01;14.17;;;11.30;;
5133;SDS011;2585;48.696;10.066;2023-05-16T03:56:28;21.27;;;15.17;;
5133;SDS011;2585;48.696;10.066;2023-05-16T03:58:58;22.67;;;15.37;;
5133;SDS011;2585;48.696;10.066;2023-05-16T04:01:25;25.83;;;17.40;;
5133;SDS011;2585;48.696;10.066;2023-05-16T04:03:52;28.60;;;18.80;;
5133;SDS011;2585;48.696;10.066;2023-05-16T04:06:19;31.47;;;20.90;;
5133;SDS011;2585;48.696;10.066;2023-05-16T04:08:47;31.40;;;20.23;;
5133;SDS011;2585;48.696;10.066;2023-05-16T04:11:13;25.70;;;18.13;;
5133;SDS011;2585;48.696;10.066;2023-05-16T04:13:40;24.10;;;16.97;;
5133;SDS011;2585;48.696;10.066;2023-05-16T04:16:07;22.17;;;16.57;;
5133;SDS011;2585;48.696;10.066;2023-05-16T04:18:34;26.67;;;16.30;;
5133;SDS011;2585;48.696;10.066;2023-05-16T04:21:01;19.57;;;14.30;;
5133;SDS011;2585;48.696;10.066;2023-05-16T04:23:28;22.87;;;14.43;;
5133;SDS011;2585;48.696;10.066;2023-05-16T04:25:55;21.50;;;14.17;;
5133;SDS011;2585;48.696;10.066;2023-05-16T04:28:22;23.20;;;15.30;;
5133;SDS011;2585;48.696;10.066;2023-05-16T04:30:48;22.67;;;15.33;;
5133;SDS011;2585;48.696;10.066;2023-05-16T04:33:16;19.87;;;14.70;;
5133;SDS011;2585;48.696;10.066;2023-05-16T04:35:43;23.70;;;15.27;;
5133;SDS011;2585;48.696;10.066;2023-05-16T04:38:10;22.43;;;14.93;;
5133;SDS011;2585;48.696;10.066;2023-05-16T04:40:37;27.83;;;18.63;;
5133;SDS011;2585;48.696;10.066;2023-05-16T04:43:06;30.47;;;19.50;;
5133;SDS011;2585;48.696;10.066;2023-05-16T04:45:33;28.00;;;19.97;;
5133;SDS011;2585;48.696;10.066;2023-05-16T04:48:03;30.87;;;19.90;;
5133;SDS011;2585;48.696;10.066;2023-05-16T04:50:30;33.10;;;19.87;;
5133;SDS011;2585;48.696;10.066;2023-05-16T04:52:57;27.50;;;20.20;;
5133;SDS011;2585;48.696;10.066;2023-05-16T04:55:23;30.40;;;19.10;;
5133;SDS011;2585;48.696;10.066;2023-05-16T04:57:51;23.90;;;18.43;;
5133;SDS011;2585;48.696;10.066;2023-05-16T05:00:18;26.17;;;16.47;;
5133;SDS011;2585;48.696;10.066;2023-05-16T05:02:45;23.90;;;17.37;;
5133;SDS011;2585;48.696;10.066;2023-05-16T05:05:12;22.80;;;17.47;;
5133;SDS011;2585;48.696;10.066;2023-05-16T05:07:38;26.40;;;17.57;;
5133;SDS011;2585;48.696;10.066;2023-05-16T05:10:06;26.60;;;18.10;;
5133;SDS011;2585;48.696;10.066;2023-05-16T05:12:34;24.43;;;17.00;;
5133;SDS011;2585;48.696;10.066;2023-05-16T05:15:01;22.67;;;17.53;;
5133;SDS011;2585;48.696;10.066;2023-05-16T05:17:28;21.30;;;15.90;;
5133;SDS011;2585;48.696;10.066;2023-05-16T05:19:55;24.57;;;17.10;;
5133;SDS011;2585;48.696;10.066;2023-05-16T05:22:22;26.60;;;19.30;;
5133;SDS011;2585;48.696;10.066;2023-05-16T05:24:49;25.30;;;18.70;;
5133;SDS011;2585;48.696;10.066;2023-05-16T05:27:16;26.00;;;16.30;;
5133;SDS011;2585;48.696;10.066;2023-05-16T05:29:43;20.80;;;16.10;;
5133;SDS011;2585;48.696;10.066;2023-05-16T05:32:09;23.30;;;17.37;;
5133;SDS011;2585;48.696;10.066;2023-05-16T05:34:36;31.13;;;17.97;;
5133;SDS011;2585;48.696;10.066;2023-05-16T05:37:03;21.60;;;16.30;;
5133;SDS011;2585;48.696;10.066;2023-05-16T05:39:30;28.27;;;18.43;;
5133;SDS011;2585;48.696;10.066;2023-05-16T05:41:57;25.27;;;17.63;;
5133;SDS011;2585;48.696;10.066;2023-05-16T05:44:24;24.50;;;18.03;;
5133;SDS011;2585;48.696;10.066;2023-05-16T05:46:50;22.37;;;17.70;;
5133;SDS011;2585;48.696;10.066;2023-05-16T05:49:17;22.40;;;17.77;;
5133;SDS011;2585;48.696;10.066;2023-05-16T05:51:44;29.30;;;18.77;;
5133;SDS011;2585;48.696;10.066;2023-05-16T05:54:11;23.50;;;17.10;;
5133;SDS011;2585;48.696;10.066;2023-05-16T05:56:38;21.40;;;15.77;;
5133;SDS011;2585;48.696;10.066;2023-05-16T05:59:05;22.27;;;17.07;;
5133;SDS011;2585;48.696;10.066;2023-05-16T06:01:31;22.03;;;16.57;;
5133;SDS011;2585;48.696;10.066;2023-05-16T06:03:58;23.83;;;14.87;;
5133;SDS011;2585;48.696;10.066;2023-05-16T06:06:27;27.00;;;15.20;;
5133;SDS011;2585;48.696;10.066;2023-05-16T06:08:54;23.80;;;15.90;;
5133;SDS011;2585;48.696;10.066;2023-05-16T06:11:21;19.40;;;15.03;;
5133;SDS011;2585;48.696;10.066;2023-05-16T06:13:48;18.97;;;15.00;;
5133;SDS011;2585;48.696;10.066;2023-05-16T06:16:15;18.00;;;14.47;;
5133;SDS011;2585;48.696;10.066;2023-05-16T06:18:42;20.70;;;14.43;;
5133;SDS011;2585;48.696;10.066;2023-05-16T06:21:09;20.40;;;14.20;;
5133;SDS011;2585;48.696;10.066;2023-05-16T06:23:36;20.83;;;15.13;;
5133;SDS011;2585;48.696;10.066;2023-05-16T06:26:03;23.90;;;16.17;;
5133;SDS011;2585;48.696;10.066;2023-05-16T06:28:30;19.97;;;13.83;;
5133;SDS011;2585;48.696;10.066;2023-05-16T06:30:57;19.33;;;13.40;;
5133;SDS011;2585;48.696;10.066;2023-05-16T06:33:23;18.23;;;13.53;;
5133;SDS011;2585;48.696;10.066;2023-05-16T06:35:50;18.43;;;13.37;;
5133;SDS011;2585;48.696;10.066;2023-05-16T06:38:17;18.77;;;13.40;;
5133;SDS011;2585;48.696;10.066;2023-05-16T06:40:45;16.07;;;13.37;;
5133;SDS011;2585;48.696;10.066;2023-05-16T06:43:11;20.03;;;14.70;;
5133;SDS011;2585;48.696;10.066;2023-05-16T06:45:39;15.90;;;13.90;;
5133;SDS011;2585;48.696;10.066;2023-05-16T06:48:06;18.87;;;15.00;;
5133;SDS011;2585;48.696;10.066;2023-05-16T06:50:33;15.83;;;13.30;;
5133;SDS011;2585;48.696;10.066;2023-05-16T06:53:00;18.40;;;13.60;;
5133;SDS011;2585;48.696;10.066;2023-05-16T06:55:30;14.73;;;12.87;;
5133;SDS011;2585;48.696;10.066;2023-05-16T06:57:57;21.03;;;14.20;;
5133;SDS011;2585;48.696;10.066;2023-05-16T07:00:23;21.90;;;15.40;;
5133;SDS011;2585;48.696;10.066;2023-05-16T07:02:51;18.43;;;14.90;;
5133;SDS011;2585;48.696;10.066;2023-05-16T07:05:18;27.73;;;15.70;;
5133;SDS011;2585;48.696;10.066;2023-05-16T07:07:45;22.40;;;14.87;;
5133;SDS011;2585;48.696;10.066;2023-05-16T07:10:12;20.23;;;14.60;;
5133;SDS011;2585;48.696;10.066;2023-05-16T07:12:40;22.50;;;16.13;;
5133;SDS011;2585;48.696;10.066;2023-05-16T07:15:08;19.17;;;15.87;;
5133;SDS011;2585;48.696;10.066;2023-05-16T07:17:35;20.87;;;15.00;;
5133;SDS011;2585;48.696;10.066;2023-05-16T07:20:02;23.10;;;16.37;;
5133;SDS011;2585;48.696;10.066;2023-05-16T07:22:30;20.63;;;16.03;;
5133;SDS011;2585;48.696;10.066;2023-05-16T07:24:58;18.60;;;15.03;;
5133;SDS011;2585;48.696;10.066;2023-05-16T07:27:26;19.23;;;14.93;;
5133;SDS011;2585;48.696;10.066;2023-05-16T07:29:53;20.07;;;15.40;;
5133;SDS011;2585;48.696;10.066;2023-05-16T07:32:20;19.40;;;14.30;;
5133;SDS011;2585;48.696;10.066;2023-05-16T07:34:47;20.77;;;15.37;;
5133;SDS011;2585;48.696;10.066;2023-05-16T07:37:14;20.67;;;15.27;;
5133;SDS011;2585;48.696;10.066;2023-05-16T07:39:41;20.30;;;15.10;;
5133;SDS011;2585;48.696;10.066;2023-05-16T07:42:08;15.93;;;13.63;;
5133;SDS011;2585;48.696;10.066;2023-05-16T07:44:35;19.00;;;14.93;;
5133;SDS011;2585;48.696;10.066;2023-05-16T07:47:02;17.17;;;14.47;;
5133;SDS011;2585;48.696;10.066;2023-05-16T07:49:29;22.13;;;14.90;;
5133;SDS011;2585;48.696;10.066;2023-05-16T07:51:55;15.50;;;13.17;;
5133;SDS011;2585;48.696;10.066;2023-05-16T07:54:22;19.80;;;14.00;;
5133;SDS011;2585;48.696;10.066;2023-05-16T07:56:49;15.83;;;13.33;;
5133;SDS011;2585;48.696;10.066;2023-05-16T07:59:16;17.07;;;14.60;;
5133;SDS011;2585;48.696;10.066;2023-05-16T08:01:43;19.13;;;14.17;;
5133;SDS011;2585;48.696;10.066;2023-05-16T08:04:10;17.20;;;14.37;;
5133;SDS011;2585;48.696;10.066;2023-05-16T08:06:36;20.47;;;13.73;;
5133;SDS011;2585;48.696;10.066;2023-05-16T08:09:03;15.83;;;13.73;;
5133;SDS011;2585;48.696;10.066;2023-05-16T08:11:30;16.40;;;13.60;;
5133;SDS011;2585;48.696;10.066;2023-05-16T08:13:57;18.20;;;14.87;;
5133;SDS011;2585;48.696;10.066;2023-05-16T08:16:24;20.33;;;14.60;;
5133;SDS011;2585;48.696;10.066;2023-05-16T08:18:51;19.20;;;13.80;;
5133;SDS011;2585;48.696;10.066;2023-05-16T08:21:18;25.50;;;14.37;;
5133;SDS011;2585;48.696;10.066;2023-05-16T08:23:45;18.30;;;14.13;;
5133;SDS011;2585;48.696;10.066;2023-05-16T08:26:12;16.70;;;13.27;;
5133;SDS011;2585;48.696;10.066;2023-05-16T08:28:39;16.80;;;14.03;;
5133;SDS011;2585;48.696;10.066;2023-05-16T08:31:06;18.80;;;13.47;;
5133;SDS011;2585;48.696;10.066;2023-05-16T08:33:33;17.27;;;14.63;;
5133;SDS011;2585;48.696;10.066;2023-05-16T08:35:59;19.17;;;15.30;;
5133;SDS011;2585;48.696;10.066;2023-05-16T08:38:26;17.87;;;14.00;;
5133;SDS011;2585;48.696;10.066;2023-05-16T08:40:53;19.73;;;14.80;;
5133;SDS011;2585;48.696;10.066;2023-05-16T08:43:21;20.03;;;14.23;;
5133;SDS011;2585;48.696;10.066;2023-05-16T08:45:48;20.40;;;13.37;;
5133;SDS011;2585;48.696;10.066;2023-05-16T08:48:15;20.70;;;14.03;;
5133;SDS011;2585;48.696;10.066;2023-05-16T08:50:44;16.73;;;13.40;;
5133;SDS011;2585;48.696;10.066;2023-05-16T08:53:11;16.20;;;13.60;;
5133;SDS011;2585;48.696;10.066;2023-05-16T08:55:42;15.50;;;11.70;;
5133;SDS011;2585;48.696;10.066;2023-05-16T08:58:11;17.50;;;12.33;;
5133;SDS011;2585;48.696;10.066;2023-05-16T09:00:40;14.87;;;12.03;;
5133;SDS011;2585;48.696;10.066;2023-05-16T09:03:07;15.60;;;12.67;;
5133;SDS011;2585;48.696;10.066;2023-05-16T09:05:35;16.30;;;13.43;;
5133;SDS011;2585;48.696;10.066;2023-05-16T09:08:02;22.00;;;13.80;;
5133;SDS011;2585;48.696;10.066;2023-05-16T09:10:29;16.03;;;13.67;;
5133;SDS011;2585;48.696;10.066;2023-05-16T09:12:58;14.83;;;13.23;;
5133;SDS011;2585;48.696;10.066;2023-05-16T09:15:25;14.60;;;11.63;;
5133;SDS011;2585;48.696;10.066;2023-05-16T09:17:59;15.97;;;12.30;;
5133;SDS011;2585;48.696;10.066;2023-05-16T09:20:27;13.03;;;11.43;;
5133;SDS011;2585;48.696;10.066;2023-05-16T09:22:55;14.50;;;12.30;;
5133;SDS011;2585;48.696;10.066;2023-05-16T09:25:24;12.30;;;11.00;;
5133;SDS011;2585;48.696;10.066;2023-05-16T09:27:57;14.33;;;11.70;;
5133;SDS011;2585;48.696;10.066;2023-05-16T09:30:28;14.63;;;11.30;;
5133;SDS011;2585;48.696;10.066;2023-05-16T09:32:56;17.70;;;13.10;;
5133;SDS011;2585;48.696;10.066;2023-05-16T09:35:24;22.20;;;12.67;;
5133;SDS011;2585;48.696;10.066;2023-05-16T09:37:54;13.90;;;12.17;;
5133;SDS011;2585;48.696;10.066;2023-05-16T09:40:22;14.80;;;11.53;;
5133;SDS011;2585;48.696;10.066;2023-05-16T09:43:02;13.73;;;11.67;;
5133;SDS011;2585;48.696;10.066;2023-05-16T09:45:31;20.90;;;12.03;;
5133;SDS011;2585;48.696;10.066;2023-05-16T09:48:10;17.80;;;11.60;;
5133;SDS011;2585;48.696;10.066;2023-05-16T09:50:40;17.27;;;13.30;;
5133;SDS011;2585;48.696;10.066;2023-05-16T09:53:28;14.93;;;12.23;;
5133;SDS011;2585;48.696;10.066;2023-05-16T09:56:05;16.03;;;12.20;;
5133;SDS011;2585;48.696;10.066;2023-05-16T09:58:34;17.30;;;10.97;;
5133;SDS011;2585;48.696;10.066;2023-05-16T10:01:03;14.20;;;11.30;;
5133;SDS011;2585;48.696;10.066;2023-05-16T10:03:33;11.37;;;10.20;;
5133;SDS011;2585;48.696;10.066;2023-05-16T10:06:02;15.53;;;11.53;;
5133;SDS011;2585;48.696;10.066;2023-05-16T10:08:31;17.50;;;11.93;;
5133;SDS011;2585;48.696;10.066;2023-05-16T10:11:02;11.80;;;9.87;;
5133;SDS011;2585;48.696;10.066;2023-05-16T10:13:32;14.30;;;11.37;;
5133;SDS011;2585;48.696;10.066;2023-05-16T10:16:01;20.27;;;11.43;;
5133;SDS011;2585;48.696;10.066;2023-05-16T10:18:38;17.07;;;12.00;;
5133;SDS011;2585;48.696;10.066;2023-05-16T10:21:07;13.13;;;10.50;;
5133;SDS011;2585;48.696;10.066;2023-05-16T10:23:42;13.67;;;10.63;;
5133;SDS011;2585;48.696;10.066;2023-05-16T10:26:11;12.87;;;10.83;;
5133;SDS011;2585;48.696;10.066;2023-05-16T10:28:41;13.43;;;10.57;;
5133;SDS011;2585;48.696;10.066;2023-05-16T10:31:09;13.00;;;10.97;;
5133;SDS011;2585;48.696;10.066;2023-05-16T10:33:37;14.03;;;10.27;;
5133;SDS011;2585;48.696;10.066;2023-05-16T10:36:05;13.90;;;9.47;;
5133;SDS011;2585;48.696;10.066;2023-05-16T10:38:36;14.47;;;11.07;;
5133;SDS011;2585;48.696;10.066;2023-05-16T10:41:04;12.13;;;10.03;;
5133;SDS011;2585;48.696;10.066;2023-05-16T10:43:32;13.53;;;10.40;;
5133;SDS011;2585;48.696;10.066;2023-05-16T10:46:03;10.70;;;9.30;;
5133;SDS011;2585;48.696;10.066;2023-05-16T10:48:38;13.60;;;8.90;;
5133;SDS011;2585;48.696;10.066;2023-05-16T10:53:52;11.33;;;8.13;;
5133;SDS011;2585;48.696;10.066;2023-05-16T10:56:23;11.30;;;8.70;;
5133;SDS011;2585;48.696;10.066;2023-05-16T10:58:52;9.47;;;7.60;;
5133;SDS011;2585;48.696;10.066;2023-05-16T11:01:30;13.37;;;9.33;;
5133;SDS011;2585;48.696;10.066;2023-05-16T11:04:08;9.73;;;8.63;;
5133;SDS011;2585;48.696;10.066;2023-05-16T11:11:42;11.17;;;9.20;;
5133;SDS011;2585;48.696;10.066;2023-05-16T11:14:21;16.70;;;9.40;;
5133;SDS011;2585;48.696;10.066;2023-05-16T11:16:52;13.90;;;8.67;;
5133;SDS011;2585;48.696;10.066;2023-05-16T11:19:29;12.70;;;10.10;;
5133;SDS011;2585;48.696;10.066;2023-05-16T11:22:20;14.93;;;8.77;;
5133;SDS011;2585;48.696;10.066;2023-05-16T11:29:51;14.63;;;10.17;;
5133;SDS011;2585;48.696;10.066;2023-05-16T11:32:20;9.57;;;8.37;;
5133;SDS011;2585;48.696;10.066;2023-05-16T11:34:48;15.57;;;10.03;;
5133;SDS011;2585;48.696;10.066;2023-05-16T11:37:17;10.87;;;9.00;;
5133;SDS011;2585;48.696;10.066;2023-05-16T11:39:45;12.37;;;9.90;;
5133;SDS011;2585;48.696;10.066;2023-05-16T11:42:12;14.63;;;9.90;;
5133;SDS011;2585;48.696;10.066;2023-05-16T11:44:39;10.97;;;9.20;;
5133;SDS011;2585;48.696;10.066;2023-05-16T11:47:07;13.83;;;8.53;;
5133;SDS011;2585;48.696;10.066;2023-05-16T11:49:34;10.90;;;9.10;;
5133;SDS011;2585;48.696;10.066;2023-05-16T11:52:02;13.20;;;9.40;;
5133;SDS011;2585;48.696;10.066;2023-05-16T11:54:29;12.47;;;9.40;;
5133;SDS011;2585;48.696;10.066;2023-05-16T11:56:57;14.27;;;9.90;;
5133;SDS011;2585;48.696;10.066;2023-05-16T11:59:24;12.47;;;10.00;;
5133;SDS011;2585;48.696;10.066;2023-05-16T12:01:52;13.80;;;10.47;;
5133;SDS011;2585;48.696;10.066;2023-05-16T12:04:19;10.83;;;8.70;;
5133;SDS011;2585;48.696;10.066;2023-05-16T12:06:56;10.77;;;9.03;;
5133;SDS011;2585;48.696;10.066;2023-05-16T12:09:25;13.60;;;10.70;;
5133;SDS011;2585;48.696;10.066;2023-05-16T12:11:52;11.37;;;9.53;;
5133;SDS011;2585;48.696;10.066;2023-05-16T12:14:18;17.50;;;9.10;;
5133;SDS011;2585;48.696;10.066;2023-05-16T12:16:46;14.60;;;9.47;;
5133;SDS011;2585;48.696;10.066;2023-05-16T12:19:14;14.07;;;10.83;;
5133;SDS011;2585;48.696;10.066;2023-05-16T12:21:42;10.93;;;9.60;;
5133;SDS011;2585;48.696;10.066;2023-05-16T12:24:10;12.47;;;9.40;;
5133;SDS011;2585;48.696;10.066;2023-05-16T12:26:38;11.80;;;8.60;;
5133;SDS011;2585;48.696;10.066;2023-05-16T12:29:06;15.90;;;8.50;;
5133;SDS011;2585;48.696;10.066;2023-05-16T12:31:37;12.40;;;9.37;;
5133;SDS011;2585;48.696;10.066;2023-05-16T12:34:15;11.00;;;8.67;;
5133;SDS011;2585;48.696;10.066;2023-05-16T12:36:43;12.43;;;9.37;;
5133;SDS011;2585;48.696;10.066;2023-05-16T12:39:10;11.43;;;8.30;;
5133;SDS011;2585;48.696;10.066;2023-05-16T12:41:39;12.30;;;9.10;;
5133;SDS011;2585;48.696;10.066;2023-05-16T12:46:40;8.40;;;7.50;;
5133;SDS011;2585;48.696;10.066;2023-05-16T12:49:18;11.03;;;8.00;;
5133;SDS011;2585;48.696;10.066;2023-05-16T12:51:49;11.13;;;7.60;;
5133;SDS011;2585;48.696;10.066;2023-05-16T12:54:17;9.23;;;8.17;;
5133;SDS011;2585;48.696;10.066;2023-05-16T12:56:45;8.90;;;7.67;;
5133;SDS011;2585;48.696;10.066;2023-05-16T12:59:12;8.90;;;7.40;;
5133;SDS011;2585;48.696;10.066;2023-05-16T13:01:39;12.00;;;9.20;;
5133;SDS011;2585;48.696;10.066;2023-05-16T13:04:07;12.20;;;9.20;;
5133;SDS011;2585;48.696;10.066;2023-05-16T13:06:35;12.13;;;8.77;;
5133;SDS011;2585;48.696;10.066;2023-05-16T13:09:23;13.23;;;8.70;;
5133;SDS011;2585;48.696;10.066;2023-05-16T13:11:50;10.80;;;8.87;;
5133;SDS011;2585;48.696;10.066;2023-05-16T13:14:17;10.10;;;8.70;;
5133;SDS011;2585;48.696;10.066;2023-05-16T13:16:44;16.10;;;7.60;;
5133;SDS011;2585;48.696;10.066;2023-05-16T13:19:11;10.63;;;7.90;;
5133;SDS011;2585;48.696;10.066;2023-05-16T13:21:38;11.70;;;8.93;;
5133;SDS011;2585;48.696;10.066;2023-05-16T13:24:05;15.50;;;8.50;;
5133;SDS011;2585;48.696;10.066;2023-05-16T13:26:32;9.20;;;8.07;;
5133;SDS011;2585;48.696;10.066;2023-05-16T13:29:00;10.13;;;7.57;;
5133;SDS011;2585;48.696;10.066;2023-05-16T13:31:27;11.57;;;8.53;;
5133;SDS011;2585;48.696;10.066;2023-05-16T13:33:54;12.23;;;8.10;;
5133;SDS011;2585;48.696;10.066;2023-05-16T13:36:21;11.17;;;7.57;;
5133;SDS011;2585;48.696;10.066;2023-05-16T13:38:47;8.03;;;6.97;;
5133;SDS011;2585;48.696;10.066;2023-05-16T13:41:14;11.57;;;8.63;;
5133;SDS011;2585;48.696;10.066;2023-05-16T13:43:41;10.47;;;8.43;;
5133;SDS011;2585;48.696;10.066;2023-05-16T13:46:08;12.13;;;8.90;;
5133;SDS011;2585;48.696;10.066;2023-05-16T13:48:35;9.67;;;7.40;;
5133;SDS011;2585;48.696;10.066;2023-05-16T13:51:02;12.00;;;8.50;;
5133;SDS011;2585;48.696;10.066;2023-05-16T13:53:28;9.47;;;7.47;;
5133;SDS011;2585;48.696;10.066;2023-05-16T13:55:55;9.63;;;8.33;;
5133;SDS011;2585;48.696;10.066;2023-05-16T13:58:22;10.80;;;8.27;;
5133;SDS011;2585;48.696;10.066;2023-05-16T14:00:49;10.97;;;7.40;;
5133;SDS011;2585;48.696;10.066;2023-05-16T14:03:16;8.50;;;7.23;;
5133;SDS011;2585;48.696;10.066;2023-05-16T14:05:43;11.83;;;9.03;;
5133;SDS011;2585;48.696;10.066;2023-05-16T14:08:10;10.37;;;8.50;;
5133;SDS011;2585;48.696;10.066;2023-05-16T14:10:37;11.70;;;8.60;;
5133;SDS011;2585;48.696;10.066;2023-05-16T14:13:04;9.33;;;8.30;;
5133;SDS011;2585;48.696;10.066;2023-05-16T14:15:31;13.20;;;7.73;;
5133;SDS011;2585;48.696;10.066;2023-05-16T14:17:58;11.77;;;7.80;;
5133;SDS011;2585;48.696;10.066;2023-05-16T14:20:25;12.30;;;8.10;;
5133;SDS011;2585;48.696;10.066;2023-05-16T14:22:52;12.20;;;8.33;;
5133;SDS011;2585;48.696;10.066;2023-05-16T14:25:19;14.40;;;7.10;;
5133;SDS011;2585;48.696;10.066;2023-05-16T14:27:46;11.53;;;6.70;;
5133;SDS011;2585;48.696;10.066;2023-05-16T14:30:13;9.07;;;7.40;;
5133;SDS011;2585;48.696;10.066;2023-05-16T14:32:39;11.00;;;7.00;;
5133;SDS011;2585;48.696;10.066;2023-05-16T14:35:07;10.77;;;7.00;;
5133;SDS011;2585;48.696;10.066;2023-05-16T14:37:37;7.93;;;6.70;;
5133;SDS011;2585;48.696;10.066;2023-05-16T14:40:04;23.40;;;7.57;;
5133;SDS011;2585;48.696;10.066;2023-05-16T14:42:32;16.70;;;6.20;;
5133;SDS011;2585;48.696;10.066;2023-05-16T14:44:59;8.80;;;6.33;;
5133;SDS011;2585;48.696;10.066;2023-05-16T14:47:26;9.07;;;6.07;;
5133;SDS011;2585;48.696;10.066;2023-05-16T14:49:54;6.07;;;5.47;;
5133;SDS011;2585;48.696;10.066;2023-05-16T14:52:21;7.63;;;5.70;;
5133;SDS011;2585;48.696;10.066;2023-05-16T14:54:48;6.53;;;5.07;;
5133;SDS011;2585;48.696;10.066;2023-05-16T14:57:15;8.60;;;5.67;;
5133;SDS011;2585;48.696;10.066;2023-05-16T14:59:42;6.83;;;4.87;;
5133;SDS011;2585;48.696;10.066;2023-05-16T15:02:09;7.30;;;4.60;;
5133;SDS011;2585;48.696;10.066;2023-05-16T15:04:36;6.30;;;4.37;;
5133;SDS011;2585;48.696;10.066;2023-05-16T15:07:03;4.97;;;4.30;;
5133;SDS011;2585;48.696;10.066;2023-05-16T15:09:30;6.73;;;5.03;;
5133;SDS011;2585;48.696;10.066;2023-05-16T15:11:56;5.83;;;4.77;;
5133;SDS011;2585;48.696;10.066;2023-05-16T15:14:23;6.50;;;4.80;;
5133;SDS011;2585;48.696;10.066;2023-05-16T15:16:52;6.00;;;4.33;;